createdAt,value
2019-05-02T00:00:50.253Z,29.90
2019-05-02T00:03:19.720Z,30.30
2019-05-02T00:05:49.425Z,31.17
2019-05-02T00:08:19.833Z,30.50
2019-05-02T00:10:50.338Z,30.37
2019-05-02T00:13:20.500Z,30.73
2019-05-02T00:15:51.040Z,30.53
2019-05-02T00:18:22.221Z,30.87
2019-05-02T00:20:51.974Z,30.53
2019-05-02T00:23:22.946Z,30.90
2019-05-02T00:25:54.303Z,29.83
2019-05-02T00:28:23.964Z,29.00
2019-05-02T00:30:53.561Z,29.97
2019-05-02T00:33:22.996Z,28.23
2019-05-02T00:35:52.421Z,28.83
2019-05-02T00:38:21.871Z,29.40
2019-05-02T00:40:51.481Z,28.43
2019-05-02T00:43:20.951Z,29.60
2019-05-02T00:45:50.457Z,27.77
2019-05-02T00:48:24.405Z,28.50
2019-05-02T00:50:53.868Z,28.00
2019-05-02T00:53:23.333Z,27.10
2019-05-02T00:55:52.740Z,28.27
2019-05-02T00:58:22.271Z,27.60
2019-05-02T01:00:54.914Z,27.70
2019-05-02T01:03:25.969Z,27.20
2019-05-02T01:05:55.591Z,28.73
2019-05-02T01:08:26.409Z,27.10
2019-05-02T01:10:56.770Z,27.00
2019-05-02T01:13:27.066Z,26.97
2019-05-02T01:15:56.521Z,27.57
2019-05-02T01:18:25.920Z,26.70
2019-05-02T01:20:58.057Z,26.93
2019-05-02T01:23:29.552Z,26.67
2019-05-02T01:25:59.129Z,28.43
2019-05-02T01:28:49.164Z,26.90
2019-05-02T01:31:20.288Z,28.03
2019-05-02T01:33:51.454Z,27.87
2019-05-02T01:36:22.619Z,27.50
2019-05-02T01:38:52.479Z,28.60
2019-05-02T01:41:23.911Z,27.93
2019-05-02T01:43:55.007Z,28.97
2019-05-02T01:46:24.291Z,29.27
2019-05-02T01:48:53.695Z,28.53
2019-05-02T01:51:23.231Z,29.00
2019-05-02T01:53:54.252Z,28.83
2019-05-02T01:56:28.659Z,30.67
2019-05-02T01:58:57.720Z,29.87
2019-05-02T02:01:27.171Z,30.10
2019-05-02T02:03:56.577Z,30.17
2019-05-02T02:06:26.004Z,31.27
2019-05-02T02:08:55.668Z,29.47
2019-05-02T02:11:28.318Z,31.90
2019-05-02T02:13:56.477Z,31.60
2019-05-02T02:16:26.174Z,32.00
2019-05-02T02:18:59.126Z,33.67
2019-05-02T02:21:32.755Z,35.80
2019-05-02T02:24:13.160Z,36.97
2019-05-02T02:26:43.627Z,36.83
2019-05-02T02:29:13.976Z,37.53
2019-05-02T02:31:46.446Z,38.10
2019-05-02T02:34:14.572Z,38.30
2019-05-02T02:36:44.012Z,37.73
2019-05-02T02:39:16.809Z,39.73
2019-05-02T02:41:45.492Z,40.10
2019-05-02T02:44:17.930Z,39.00
2019-05-02T02:46:49.334Z,40.37
2019-05-02T02:49:21.681Z,39.37
2019-05-02T02:51:50.166Z,40.83
2019-05-02T02:54:19.706Z,40.00
2019-05-02T02:56:49.172Z,42.03
2019-05-02T02:59:26.405Z,41.03
2019-05-02T03:01:49.898Z,41.37
2019-05-02T03:04:19.504Z,41.83
2019-05-02T03:06:49.478Z,42.23
2019-05-02T03:09:25.938Z,42.27
2019-05-02T03:12:02.229Z,42.77
2019-05-02T03:14:31.861Z,41.97
2019-05-02T03:17:01.269Z,41.33
2019-05-02T03:19:30.900Z,41.93
2019-05-02T03:22:01.481Z,41.00
2019-05-02T03:24:36.821Z,40.80
2019-05-02T03:27:03.037Z,40.57
2019-05-02T03:29:41.387Z,40.80
2019-05-02T03:32:14.354Z,41.87
2019-05-02T03:34:47.205Z,41.27
2019-05-02T03:37:10.416Z,40.10
2019-05-02T03:39:38.328Z,42.60
2019-05-02T03:42:07.802Z,40.60
2019-05-02T03:44:37.461Z,40.97
2019-05-02T03:47:06.856Z,41.47
2019-05-02T03:49:40.910Z,43.10
2019-05-02T03:52:07.529Z,47.03
2019-05-02T03:54:48.644Z,48.27
2019-05-02T03:57:08.230Z,47.93
2019-05-02T03:59:39.386Z,47.67
2019-05-02T04:02:14.069Z,47.87
2019-05-02T04:04:41.022Z,46.13
2019-05-02T04:07:10.858Z,47.50
2019-05-02T04:09:42.533Z,46.60
2019-05-02T04:12:19.084Z,44.87
2019-05-02T04:14:43.716Z,44.20
2019-05-02T04:17:13.412Z,45.73
2019-05-02T04:19:43.691Z,44.17
2019-05-02T04:22:15.532Z,43.27
2019-05-02T04:24:54.655Z,43.53
2019-05-02T04:27:16.976Z,42.30
2019-05-02T04:29:46.661Z,40.73
2019-05-02T04:32:16.066Z,41.60
2019-05-02T04:34:49.128Z,41.60
2019-05-02T04:37:17.569Z,41.10
2019-05-02T04:39:49.149Z,43.43
2019-05-02T04:42:22.088Z,43.50
2019-05-02T04:45:12.873Z,42.43
2019-05-02T04:47:21.768Z,42.73
2019-05-02T04:49:52.213Z,41.77
2019-05-02T04:52:21.799Z,44.13
2019-05-02T04:54:51.241Z,43.23
2019-05-02T04:57:26.200Z,43.40
2019-05-02T05:00:02.385Z,43.03
2019-05-02T05:02:34.629Z,44.57
2019-05-02T05:04:54.064Z,43.83
2019-05-02T05:07:23.821Z,43.47
2019-05-02T05:09:58.088Z,44.87
2019-05-02T05:12:24.436Z,44.77
2019-05-02T05:14:53.975Z,44.23
2019-05-02T05:17:25.189Z,45.13
2019-05-02T05:19:54.799Z,47.17
2019-05-02T05:22:24.203Z,46.17
2019-05-02T05:24:55.295Z,46.20
2019-05-02T05:27:24.786Z,45.00
2019-05-02T05:29:59.561Z,44.70
2019-05-02T05:32:25.374Z,44.33
2019-05-02T05:34:54.831Z,45.57
2019-05-02T05:37:24.402Z,44.77
2019-05-02T05:39:53.847Z,44.30
2019-05-02T05:42:30.105Z,44.10
2019-05-02T05:44:54.478Z,46.70
2019-05-02T05:47:24.102Z,46.27
2019-05-02T05:49:57.676Z,47.70
2019-05-02T05:52:24.721Z,46.87
2019-05-02T05:54:54.893Z,47.63
2019-05-02T05:57:24.333Z,48.10
2019-05-02T05:59:53.751Z,47.33
2019-05-02T06:02:23.204Z,48.73
2019-05-02T06:04:55.199Z,47.50
2019-05-02T06:07:24.308Z,47.40
2019-05-02T06:09:53.831Z,47.57
2019-05-02T06:12:26.095Z,48.77
2019-05-02T06:14:56.245Z,46.37
2019-05-02T06:17:28.657Z,46.97
2019-05-02T06:19:56.930Z,48.60
2019-05-02T06:22:26.433Z,49.50
2019-05-02T06:24:56.103Z,49.90
2019-05-02T06:27:30.253Z,50.13
2019-05-02T06:29:57.550Z,49.50
2019-05-02T06:32:27.059Z,51.03
2019-05-02T06:34:56.505Z,52.47
2019-05-02T06:37:27.450Z,53.37
2019-05-02T06:39:56.924Z,51.07
2019-05-02T06:42:27.596Z,50.97
2019-05-02T06:44:59.861Z,50.77
2019-05-02T06:47:28.922Z,50.60
2019-05-02T06:50:01.072Z,51.83
2019-05-02T06:52:32.842Z,54.13
2019-05-02T06:55:02.189Z,50.60
2019-05-02T06:57:31.767Z,52.00
2019-05-02T07:00:01.203Z,51.77
2019-05-02T07:02:33.533Z,49.77
2019-05-02T07:05:02.022Z,49.57
2019-05-02T07:07:36.571Z,50.37
2019-05-02T07:10:02.734Z,48.47
2019-05-02T07:12:32.238Z,48.50
2019-05-02T07:15:03.791Z,48.00
2019-05-02T07:17:46.561Z,48.50
2019-05-02T07:20:16.298Z,45.27
2019-05-02T07:22:45.880Z,44.77
2019-05-02T07:25:18.275Z,44.20
2019-05-02T07:27:47.805Z,43.03
2019-05-02T07:30:18.254Z,42.57
2019-05-02T07:32:47.765Z,42.40
2019-05-02T07:35:19.071Z,44.13
2019-05-02T07:37:50.045Z,42.93
2019-05-02T07:40:20.293Z,45.80
2019-05-02T07:42:49.806Z,44.83
2019-05-02T07:45:19.767Z,46.70
2019-05-02T07:47:49.379Z,45.77
2019-05-02T07:50:19.060Z,46.73
2019-05-02T07:52:48.491Z,44.83
2019-05-02T07:55:17.923Z,45.87
2019-05-02T07:57:47.806Z,45.30
2019-05-02T08:00:19.349Z,41.77
2019-05-02T08:02:48.858Z,40.27
2019-05-02T08:05:21.495Z,41.37
2019-05-02T08:07:53.273Z,38.80
2019-05-02T08:10:26.244Z,36.30
2019-05-02T08:12:55.930Z,35.70
2019-05-02T08:15:25.519Z,37.00
2019-05-02T08:17:55.241Z,37.67
2019-05-02T08:20:24.915Z,38.50
2019-05-02T08:22:54.358Z,39.20
2019-05-02T08:25:23.866Z,38.13
2019-05-02T08:27:57.703Z,39.50
2019-05-02T08:30:28.863Z,39.33
2019-05-02T08:32:58.319Z,41.13
2019-05-02T08:35:28.410Z,40.23
2019-05-02T08:37:58.632Z,38.87
2019-05-02T08:40:28.153Z,40.13
2019-05-02T08:42:57.601Z,38.87
2019-05-02T08:45:27.116Z,39.90
2019-05-02T08:48:00.274Z,40.90
2019-05-02T08:50:31.935Z,42.27
2019-05-02T08:53:00.490Z,42.30
2019-05-02T08:55:30.095Z,42.27
2019-05-02T08:57:59.790Z,40.30
2019-05-02T09:00:32.220Z,40.53
2019-05-02T09:03:02.759Z,40.60
2019-05-02T09:05:31.545Z,38.80
2019-05-02T09:08:00.964Z,39.97
2019-05-02T09:10:30.885Z,40.30
2019-05-02T09:13:02.532Z,39.37
2019-05-02T09:15:32.621Z,37.73
2019-05-02T09:18:02.977Z,39.60
2019-05-02T09:20:32.543Z,39.00
2019-05-02T09:23:02.069Z,41.10
2019-05-02T09:25:32.397Z,39.87
2019-05-02T09:28:03.689Z,39.40
2019-05-02T09:30:33.148Z,40.90
2019-05-02T09:33:06.602Z,42.50
2019-05-02T09:35:33.940Z,43.17
2019-05-02T09:38:03.601Z,42.97
2019-05-02T09:40:33.234Z,44.67
2019-05-02T09:43:04.803Z,45.13
2019-05-02T09:45:37.394Z,42.60
2019-05-02T09:48:08.100Z,41.23
2019-05-02T09:50:38.620Z,38.57
2019-05-02T09:53:13.049Z,38.73
2019-05-02T09:55:42.309Z,36.03
2019-05-02T09:58:18.787Z,35.57
2019-05-02T10:00:46.253Z,35.90
2019-05-02T10:03:16.718Z,34.37
2019-05-02T10:05:46.269Z,37.30
2019-05-02T10:08:16.030Z,36.57
2019-05-02T10:10:46.174Z,36.80
2019-05-02T10:13:16.067Z,35.07
2019-05-02T10:15:46.095Z,35.87
2019-05-02T10:18:19.631Z,35.83
2019-05-02T10:20:46.836Z,32.97
2019-05-02T10:23:19.503Z,33.90
2019-05-02T10:25:47.555Z,35.77
2019-05-02T10:28:17.025Z,35.77
2019-05-02T10:30:47.340Z,37.30
2019-05-02T10:33:18.939Z,36.50
2019-05-02T10:35:49.861Z,37.27
2019-05-02T10:38:22.751Z,33.93
2019-05-02T10:40:54.713Z,28.73
2019-05-02T10:43:25.149Z,30.13
2019-05-02T10:45:56.633Z,31.03
2019-05-02T10:48:28.693Z,31.20
2019-05-02T10:51:09.448Z,31.20
2019-05-02T10:53:38.914Z,32.90
2019-05-02T10:56:08.363Z,32.70
2019-05-02T10:58:39.244Z,32.20
2019-05-02T11:01:09.967Z,31.83
2019-05-02T11:03:43.738Z,30.60
2019-05-02T11:06:12.640Z,29.80
2019-05-02T11:08:45.960Z,29.63
2019-05-02T11:11:13.430Z,30.57
2019-05-02T11:14:05.689Z,29.63
2019-05-02T11:16:36.491Z,32.83
2019-05-02T11:19:07.591Z,34.50
2019-05-02T11:21:37.170Z,33.20
2019-05-02T11:24:06.621Z,33.73
2019-05-02T11:26:37.684Z,31.67
2019-05-02T11:29:07.135Z,33.33
2019-05-02T11:31:36.678Z,33.60
2019-05-02T11:34:06.129Z,30.10
2019-05-02T11:36:35.817Z,29.73
2019-05-02T11:39:16.525Z,31.63
2019-05-02T11:41:38.263Z,29.30
2019-05-02T11:44:07.931Z,28.30
2019-05-02T11:46:41.627Z,28.13
2019-05-02T11:49:08.503Z,26.93
2019-05-02T11:51:38.041Z,27.20
2019-05-02T11:54:09.475Z,25.20
2019-05-02T11:56:41.205Z,27.03
2019-05-02T11:59:14.433Z,27.07
2019-05-02T12:01:56.533Z,25.30
2019-05-02T12:04:16.901Z,26.10
2019-05-02T12:06:49.901Z,25.23
2019-05-02T12:09:17.460Z,19.40
2019-05-02T12:11:47.438Z,18.80
2019-05-02T12:14:18.025Z,17.27
2019-05-02T12:16:47.487Z,16.80
2019-05-02T12:19:17.069Z,16.97
2019-05-02T12:21:55.074Z,17.73
2019-05-02T12:24:24.467Z,19.50
2019-05-02T12:26:54.039Z,18.73
2019-05-02T12:29:23.455Z,18.20
2019-05-02T12:31:56.371Z,18.10
2019-05-02T12:34:24.077Z,17.27
2019-05-02T12:36:53.541Z,16.23
2019-05-02T12:39:22.951Z,15.20
2019-05-02T12:41:53.625Z,15.63
2019-05-02T12:44:23.663Z,14.30
2019-05-02T12:46:53.174Z,14.07
2019-05-02T12:49:27.665Z,13.23
2019-05-02T12:51:53.745Z,11.60
2019-05-02T12:54:23.238Z,10.90
2019-05-02T12:56:52.990Z,9.30
2019-05-02T12:59:22.686Z,10.20
2019-05-02T13:01:52.292Z,8.53
2019-05-02T13:04:22.939Z,8.40
2019-05-02T13:06:53.043Z,8.27
2019-05-02T13:09:23.352Z,9.20
2019-05-02T13:11:54.888Z,9.20
2019-05-02T13:14:26.057Z,9.00
2019-05-02T13:17:01.278Z,10.00
2019-05-02T13:19:38.160Z,10.10
2019-05-02T13:22:09.641Z,9.20
2019-05-02T13:24:42.323Z,8.77
2019-05-02T13:27:14.960Z,11.83
2019-05-02T13:29:44.645Z,12.97
2019-05-02T13:32:18.753Z,11.60
2019-05-02T13:34:58.172Z,10.30
2019-05-02T13:37:27.622Z,9.23
2019-05-02T13:40:02.702Z,8.50
2019-05-02T13:42:33.698Z,9.83
2019-05-02T13:45:21.968Z,9.07
2019-05-02T13:47:52.997Z,9.43
2019-05-02T13:50:22.689Z,11.63
2019-05-02T13:52:57.731Z,8.50
2019-05-02T13:55:24.876Z,7.33
2019-05-02T13:57:54.439Z,7.23
2019-05-02T14:00:25.857Z,8.10
2019-05-02T14:02:55.656Z,7.50
2019-05-02T14:05:25.129Z,5.77
2019-05-02T14:07:57.243Z,6.03
2019-05-02T14:10:38.573Z,6.17
2019-05-02T14:13:03.437Z,5.33
2019-05-02T14:15:34.516Z,5.03
2019-05-02T14:18:04.144Z,4.70
2019-05-02T14:20:33.667Z,5.47
2019-05-02T14:23:03.175Z,4.37
2019-05-02T14:25:32.638Z,4.67
2019-05-02T14:28:02.903Z,4.23
2019-05-02T14:30:39.398Z,4.23
2019-05-02T14:33:05.727Z,4.30
2019-05-02T14:35:36.785Z,4.30
2019-05-02T14:38:13.657Z,3.60
2019-05-02T14:40:52.056Z,4.00
2019-05-02T14:43:44.558Z,4.17
2019-05-02T14:46:12.611Z,2.60
2019-05-02T14:48:45.222Z,2.80
2019-05-02T14:51:16.623Z,2.97
2019-05-02T14:53:48.295Z,3.20
2019-05-02T14:56:25.623Z,3.50
2019-05-02T14:58:55.092Z,3.70
2019-05-02T15:01:26.070Z,3.10
2019-05-02T15:03:58.419Z,3.10
2019-05-02T15:06:27.200Z,2.90
2019-05-02T15:08:56.829Z,2.90
2019-05-02T15:11:30.920Z,3.33
2019-05-02T15:13:57.415Z,3.30
2019-05-02T15:16:39.634Z,3.53
2019-05-02T15:18:58.114Z,3.33
2019-05-02T15:21:29.157Z,3.20
2019-05-02T15:23:58.590Z,3.20
2019-05-02T15:26:31.287Z,2.80
2019-05-02T15:28:59.123Z,2.90
2019-05-02T15:31:33.726Z,2.40
2019-05-02T15:34:05.191Z,2.40
2019-05-02T15:36:37.118Z,2.10
2019-05-02T15:41:44.904Z,1.80
2019-05-02T15:44:12.862Z,2.17
2019-05-02T15:46:42.548Z,2.10
2019-05-02T15:49:12.401Z,1.80
2019-05-02T15:51:43.660Z,1.87
2019-05-02T15:54:13.263Z,1.40
2019-05-02T15:57:00.431Z,1.63
2019-05-02T15:59:37.507Z,2.20
2019-05-02T16:02:07.687Z,2.10
2019-05-02T16:04:41.836Z,2.30
2019-05-02T16:07:12.185Z,2.03
2019-05-02T16:09:42.077Z,1.93
2019-05-02T16:12:12.248Z,2.60
2019-05-02T16:14:42.612Z,1.97
2019-05-02T16:17:12.594Z,2.60
2019-05-02T16:19:46.718Z,2.23
2019-05-02T16:22:17.157Z,2.13
2019-05-02T16:24:48.720Z,2.27
2019-05-02T16:27:21.847Z,2.60
2019-05-02T16:29:49.155Z,2.80
2019-05-02T16:32:23.205Z,2.50
2019-05-02T16:34:54.985Z,2.70
2019-05-02T16:37:24.835Z,2.80
2019-05-02T16:39:54.300Z,2.73
2019-05-02T16:42:23.689Z,2.97
2019-05-02T16:44:54.884Z,2.83
2019-05-02T16:47:24.496Z,3.40
2019-05-02T16:49:56.465Z,3.80
2019-05-02T16:52:25.408Z,3.57
2019-05-02T16:54:55.440Z,3.40
2019-05-02T16:57:24.853Z,3.77
2019-05-02T17:00:01.528Z,3.23
2019-05-02T17:02:25.603Z,3.10
2019-05-02T17:04:55.090Z,3.43
2019-05-02T17:07:26.140Z,3.67
2019-05-02T17:10:17.629Z,3.27
2019-05-02T17:12:47.215Z,4.20
2019-05-02T17:15:36.325Z,3.90
2019-05-02T17:18:12.767Z,4.50
2019-05-02T17:20:38.056Z,4.43
2019-05-02T17:23:07.920Z,4.30
2019-05-02T17:25:38.901Z,5.03
2019-05-02T17:28:10.540Z,4.80
2019-05-02T17:30:42.537Z,4.47
2019-05-02T17:33:12.791Z,5.20
2019-05-02T17:35:49.616Z,5.30
2019-05-02T17:38:13.137Z,5.40
2019-05-02T17:40:42.553Z,4.67
2019-05-02T17:43:12.192Z,3.27
2019-05-02T17:45:41.679Z,3.07
2019-05-02T17:48:16.623Z,3.13
2019-05-02T17:50:49.470Z,3.73
2019-05-02T17:53:17.842Z,4.13
2019-05-02T17:55:48.008Z,3.73
2019-05-02T17:58:17.454Z,4.00
2019-05-02T18:00:54.468Z,4.23
2019-05-02T18:03:24.268Z,4.67
2019-05-02T18:05:53.483Z,3.90
2019-05-02T18:08:23.041Z,4.20
2019-05-02T18:10:58.522Z,4.47
2019-05-02T18:13:23.812Z,5.37
2019-05-02T18:15:53.572Z,4.23
2019-05-02T18:18:23.093Z,4.13
2019-05-02T18:20:53.011Z,4.03
2019-05-02T18:23:25.861Z,3.90
2019-05-02T18:25:57.435Z,3.93
2019-05-02T18:28:26.445Z,3.93
2019-05-02T18:30:57.205Z,4.23
2019-05-02T18:33:27.166Z,4.63
2019-05-02T18:35:56.666Z,4.20
2019-05-02T18:38:26.241Z,4.47
2019-05-02T18:41:00.438Z,4.60
2019-05-02T18:43:27.227Z,4.37
2019-05-02T18:45:58.158Z,5.00
2019-05-02T18:48:27.881Z,4.83
2019-05-02T18:50:57.398Z,5.50
2019-05-02T18:53:27.474Z,4.73
2019-05-02T18:56:01.597Z,4.70
2019-05-02T18:58:28.198Z,5.27
2019-05-02T19:00:59.223Z,5.70
2019-05-02T19:03:28.698Z,6.27
2019-05-02T19:05:58.498Z,7.10
2019-05-02T19:08:33.666Z,5.27
2019-05-02T19:11:08.983Z,5.93
2019-05-02T19:13:37.546Z,5.37
2019-05-02T19:16:04.541Z,5.33
2019-05-02T19:18:34.186Z,5.47
2019-05-02T19:21:04.850Z,5.87
2019-05-02T19:23:35.498Z,5.67
2019-05-02T19:26:10.019Z,5.73
2019-05-02T19:28:45.193Z,5.93
2019-05-02T19:31:14.768Z,6.33
2019-05-02T19:33:44.261Z,5.40
2019-05-02T19:36:16.188Z,6.07
2019-05-02T19:38:45.814Z,5.53
2019-05-02T19:41:15.702Z,5.83
2019-05-02T19:43:49.286Z,5.83
2019-05-02T19:46:16.999Z,5.43
2019-05-02T19:48:46.454Z,5.30
2019-05-02T19:51:18.503Z,5.83
2019-05-02T19:53:51.681Z,5.90
2019-05-02T19:56:18.360Z,5.20
2019-05-02T19:58:47.928Z,5.40
2019-05-02T20:01:22.283Z,4.63
2019-05-02T20:03:48.886Z,4.20
2019-05-02T20:06:18.410Z,3.77
2019-05-02T20:08:47.945Z,3.63
2019-05-02T20:11:18.145Z,3.50
2019-05-02T20:13:47.604Z,3.70
2019-05-02T20:16:22.494Z,3.70
2019-05-02T20:18:52.620Z,3.40
2019-05-02T20:21:27.913Z,3.47
2019-05-02T20:23:57.565Z,3.97
2019-05-02T20:26:27.070Z,3.80
2019-05-02T20:28:56.472Z,3.70
2019-05-02T20:31:25.935Z,3.93
2019-05-02T20:33:56.867Z,4.87
2019-05-02T20:36:27.888Z,3.83
2019-05-02T20:38:57.622Z,4.00
2019-05-02T20:41:28.835Z,4.70
2019-05-02T20:43:58.281Z,4.53
2019-05-02T20:46:27.753Z,4.33
2019-05-02T20:48:57.340Z,4.43
2019-05-02T20:51:26.809Z,4.50
2019-05-02T20:53:56.431Z,4.73
2019-05-02T20:56:25.854Z,4.50
2019-05-02T20:58:56.906Z,5.00
2019-05-02T21:01:26.468Z,4.40
2019-05-02T21:03:56.093Z,4.27
2019-05-02T21:06:40.917Z,3.10
2019-05-02T21:09:07.869Z,3.30
2019-05-02T21:11:37.597Z,3.27
2019-05-02T21:14:07.208Z,3.33
2019-05-02T21:16:37.010Z,3.13
2019-05-02T21:19:06.600Z,2.97
2019-05-02T21:21:40.186Z,3.33
2019-05-02T21:24:09.043Z,2.90
2019-05-02T21:26:38.505Z,3.70
2019-05-02T21:29:07.937Z,3.50
2019-05-02T21:31:37.581Z,3.67
2019-05-02T21:34:07.360Z,3.30
2019-05-02T21:36:37.080Z,3.07
2019-05-02T21:39:11.752Z,2.90
2019-05-02T21:41:42.385Z,3.23
2019-05-02T21:44:13.638Z,3.00
2019-05-02T21:46:43.263Z,2.57
2019-05-02T21:49:14.436Z,3.50
2019-05-02T21:51:45.568Z,2.57
2019-05-02T21:54:19.449Z,2.50
2019-05-02T21:56:56.916Z,2.30
2019-05-02T21:59:26.376Z,2.90
2019-05-02T22:01:57.704Z,2.90
2019-05-02T22:04:27.164Z,2.57
2019-05-02T22:06:56.574Z,2.40
2019-05-02T22:09:27.758Z,2.37
2019-05-02T22:11:57.269Z,2.60
2019-05-02T22:14:26.786Z,2.50
2019-05-02T22:16:56.203Z,2.57
2019-05-02T22:19:26.195Z,2.77
2019-05-02T22:21:55.618Z,2.60
2019-05-02T22:24:25.089Z,2.20
2019-05-02T22:26:54.592Z,2.67
2019-05-02T22:29:24.242Z,2.70
2019-05-02T22:31:54.520Z,2.47
2019-05-02T22:34:24.223Z,2.27
2019-05-02T22:36:54.304Z,2.10
2019-05-02T22:39:43.920Z,2.53
2019-05-02T22:42:13.494Z,2.77
2019-05-02T22:44:42.940Z,4.00
2019-05-02T22:47:14.081Z,3.10
2019-05-02T22:49:45.149Z,3.40
2019-05-02T22:52:14.779Z,2.47
2019-05-02T22:54:44.851Z,2.70
2019-05-02T22:57:14.504Z,2.53
2019-05-02T22:59:44.107Z,2.53
2019-05-02T23:02:15.343Z,2.97
2019-05-02T23:04:44.806Z,3.00
2019-05-02T23:07:14.339Z,2.40
2019-05-02T23:09:43.873Z,2.97
2019-05-02T23:12:13.515Z,3.27
2019-05-02T23:14:43.060Z,2.60
2019-05-02T23:17:12.937Z,3.03
2019-05-02T23:19:42.595Z,2.63
2019-05-02T23:22:12.671Z,3.17
2019-05-02T23:25:02.753Z,2.23
2019-05-02T23:27:42.452Z,2.67
2019-05-02T23:30:14.284Z,2.43
2019-05-02T23:32:43.914Z,2.57
2019-05-02T23:35:16.577Z,3.00
2019-05-02T23:37:46.071Z,3.60
2019-05-02T23:40:16.438Z,2.80
2019-05-02T23:42:47.264Z,2.80
2019-05-02T23:45:16.932Z,2.00
2019-05-02T23:47:46.393Z,2.10
2019-05-02T23:50:16.004Z,2.10
2019-05-02T23:52:45.445Z,2.73
2019-05-02T23:55:15.036Z,2.00
2019-05-02T23:57:44.573Z,2.43
